sensor_id;sensor_type;location;lat;lon;timestamp;P1;durP1;ratioP1;P2;durP2;ratioP2
49460;SDS011;35355;49.198;-0.368;2022-07-04T00:00:09;5.50;;;0.88;;
49460;SDS011;35355;49.198;-0.368;2022-07-04T00:02:36;5.55;;;1.38;;
49460;SDS011;35355;49.198;-0.368;2022-07-04T00:05:03;1.63;;;0.70;;
49460;SDS011;35355;49.198;-0.368;2022-07-04T00:07:29;6.43;;;1.02;;
49460;SDS011;35355;49.198;-0.368;2022-07-04T00:09:54;5.10;;;1.23;;
49460;SDS011;35355;49.198;-0.368;2022-07-04T00:12:20;6.57;;;1.10;;
49460;SDS011;35355;49.198;-0.368;2022-07-04T00:14:45;4.03;;;0.60;;
49460;SDS011;35355;49.198;-0.368;2022-07-04T00:17:11;4.50;;;1.05;;
49460;SDS011;35355;49.198;-0.368;2022-07-04T00:19:37;4.72;;;0.77;;
49460;SDS011;35355;49.198;-0.368;2022-07-04T00:22:02;6.78;;;0.90;;
49460;SDS011;35355;49.198;-0.368;2022-07-04T00:24:28;7.05;;;1.05;;
49460;SDS011;35355;49.198;-0.368;2022-07-04T00:26:53;4.40;;;1.00;;
49460;SDS011;35355;49.198;-0.368;2022-07-04T00:29:19;10.55;;;0.90;;
49460;SDS011;35355;49.198;-0.368;2022-07-04T00:31:44;5.50;;;1.48;;
49460;SDS011;35355;49.198;-0.368;2022-07-04T00:34:09;3.30;;;0.95;;
49460;SDS011;35355;49.198;-0.368;2022-07-04T00:36:35;6.93;;;0.95;;
49460;SDS011;35355;49.198;-0.368;2022-07-04T00:39:00;7.28;;;0.93;;
49460;SDS011;35355;49.198;-0.368;2022-07-04T00:41:26;7.72;;;1.02;;
49460;SDS011;35355;49.198;-0.368;2022-07-04T00:46:26;4.03;;;0.93;;
49460;SDS011;35355;49.198;-0.368;2022-07-04T00:48:52;6.15;;;1.23;;
49460;SDS011;35355;49.198;-0.368;2022-07-04T00:51:17;2.35;;;0.90;;
49460;SDS011;35355;49.198;-0.368;2022-07-04T00:53:43;5.00;;;1.40;;
49460;SDS011;35355;49.198;-0.368;2022-07-04T00:56:09;4.70;;;1.05;;
49460;SDS011;35355;49.198;-0.368;2022-07-04T00:58:35;3.50;;;0.90;;
49460;SDS011;35355;49.198;-0.368;2022-07-04T01:01:02;4.80;;;1.33;;
49460;SDS011;35355;49.198;-0.368;2022-07-04T01:03:27;2.47;;;1.67;;
49460;SDS011;35355;49.198;-0.368;2022-07-04T01:05:52;9.18;;;1.38;;
49460;SDS011;35355;49.198;-0.368;2022-07-04T01:08:18;6.07;;;1.10;;
49460;SDS011;35355;49.198;-0.368;2022-07-04T01:10:44;4.15;;;1.20;;
49460;SDS011;35355;49.198;-0.368;2022-07-04T01:13:19;8.10;;;1.30;;
49460;SDS011;35355;49.198;-0.368;2022-07-04T01:15:48;6.82;;;1.52;;
49460;SDS011;35355;49.198;-0.368;2022-07-04T01:18:13;8.10;;;1.80;;
49460;SDS011;35355;49.198;-0.368;2022-07-04T01:20:39;7.88;;;1.20;;
49460;SDS011;35355;49.198;-0.368;2022-07-04T01:23:04;7.70;;;1.02;;
49460;SDS011;35355;49.198;-0.368;2022-07-04T01:25:30;8.85;;;1.88;;
49460;SDS011;35355;49.198;-0.368;2022-07-04T01:27:57;8.25;;;1.60;;
49460;SDS011;35355;49.198;-0.368;2022-07-04T01:30:23;6.32;;;1.98;;
49460;SDS011;35355;49.198;-0.368;2022-07-04T01:32:49;3.35;;;1.10;;
49460;SDS011;35355;49.198;-0.368;2022-07-04T01:35:14;6.00;;;1.35;;
49460;SDS011;35355;49.198;-0.368;2022-07-04T01:37:39;8.23;;;1.30;;
49460;SDS011;35355;49.198;-0.368;2022-07-04T01:40:05;7.47;;;1.58;;
49460;SDS011;35355;49.198;-0.368;2022-07-04T01:42:31;4.53;;;1.50;;
49460;SDS011;35355;49.198;-0.368;2022-07-04T01:44:56;9.23;;;1.60;;
49460;SDS011;35355;49.198;-0.368;2022-07-04T01:47:21;10.18;;;1.63;;
49460;SDS011;35355;49.198;-0.368;2022-07-04T01:49:47;5.93;;;1.35;;
49460;SDS011;35355;49.198;-0.368;2022-07-04T01:52:12;4.88;;;1.00;;
49460;SDS011;35355;49.198;-0.368;2022-07-04T01:54:38;7.55;;;1.25;;
49460;SDS011;35355;49.198;-0.368;2022-07-04T01:57:03;6.72;;;1.08;;
49460;SDS011;35355;49.198;-0.368;2022-07-04T01:59:29;9.70;;;1.48;;
49460;SDS011;35355;49.198;-0.368;2022-07-04T02:02:20;8.93;;;2.42;;
49460;SDS011;35355;49.198;-0.368;2022-07-04T02:04:46;5.18;;;1.40;;
49460;SDS011;35355;49.198;-0.368;2022-07-04T02:07:11;7.03;;;1.75;;
49460;SDS011;35355;49.198;-0.368;2022-07-04T02:09:36;7.85;;;1.40;;
49460;SDS011;35355;49.198;-0.368;2022-07-04T02:12:02;6.50;;;1.50;;
49460;SDS011;35355;49.198;-0.368;2022-07-04T02:14:46;3.25;;;1.30;;
49460;SDS011;35355;49.198;-0.368;2022-07-04T02:17:11;4.05;;;1.95;;
49460;SDS011;35355;49.198;-0.368;2022-07-04T02:19:37;6.20;;;1.25;;
49460;SDS011;35355;49.198;-0.368;2022-07-04T02:22:02;4.60;;;1.25;;
49460;SDS011;35355;49.198;-0.368;2022-07-04T02:24:28;7.88;;;1.80;;
49460;SDS011;35355;49.198;-0.368;2022-07-04T02:26:54;4.50;;;0.80;;
49460;SDS011;35355;49.198;-0.368;2022-07-04T02:29:19;9.88;;;1.50;;
49460;SDS011;35355;49.198;-0.368;2022-07-04T02:31:45;7.22;;;1.48;;
49460;SDS011;35355;49.198;-0.368;2022-07-04T02:34:10;8.02;;;1.20;;
49460;SDS011;35355;49.198;-0.368;2022-07-04T02:36:36;8.15;;;1.73;;
49460;SDS011;35355;49.198;-0.368;2022-07-04T02:39:02;6.43;;;1.50;;
49460;SDS011;35355;49.198;-0.368;2022-07-04T02:41:29;10.45;;;1.52;;
49460;SDS011;35355;49.198;-0.368;2022-07-04T02:43:55;5.22;;;1.33;;
49460;SDS011;35355;49.198;-0.368;2022-07-04T02:46:20;7.45;;;1.73;;
49460;SDS011;35355;49.198;-0.368;2022-07-04T02:48:45;3.53;;;1.10;;
49460;SDS011;35355;49.198;-0.368;2022-07-04T02:51:11;8.13;;;1.77;;
49460;SDS011;35355;49.198;-0.368;2022-07-04T02:53:36;6.07;;;1.33;;
49460;SDS011;35355;49.198;-0.368;2022-07-04T02:56:01;8.45;;;1.45;;
49460;SDS011;35355;49.198;-0.368;2022-07-04T02:58:30;11.93;;;1.60;;
49460;SDS011;35355;49.198;-0.368;2022-07-04T03:00:56;7.95;;;1.58;;
49460;SDS011;35355;49.198;-0.368;2022-07-04T03:03:21;3.03;;;1.27;;
49460;SDS011;35355;49.198;-0.368;2022-07-04T03:05:46;4.68;;;1.63;;
49460;SDS011;35355;49.198;-0.368;2022-07-04T03:08:12;4.13;;;1.58;;
49460;SDS011;35355;49.198;-0.368;2022-07-04T03:10:37;5.50;;;1.13;;
49460;SDS011;35355;49.198;-0.368;2022-07-04T03:13:03;11.05;;;1.80;;
49460;SDS011;35355;49.198;-0.368;2022-07-04T03:15:28;8.02;;;1.85;;
49460;SDS011;35355;49.198;-0.368;2022-07-04T03:17:53;5.15;;;1.67;;
49460;SDS011;35355;49.198;-0.368;2022-07-04T03:20:19;9.00;;;2.38;;
49460;SDS011;35355;49.198;-0.368;2022-07-04T03:22:44;9.13;;;1.50;;
49460;SDS011;35355;49.198;-0.368;2022-07-04T03:25:10;8.60;;;1.50;;
49460;SDS011;35355;49.198;-0.368;2022-07-04T03:27:35;11.07;;;2.67;;
49460;SDS011;35355;49.198;-0.368;2022-07-04T03:30:00;5.15;;;1.27;;
49460;SDS011;35355;49.198;-0.368;2022-07-04T03:32:26;7.75;;;1.65;;
49460;SDS011;35355;49.198;-0.368;2022-07-04T03:34:51;2.55;;;1.25;;
49460;SDS011;35355;49.198;-0.368;2022-07-04T03:37:16;14.70;;;1.83;;
49460;SDS011;35355;49.198;-0.368;2022-07-04T03:39:42;8.73;;;1.50;;
49460;SDS011;35355;49.198;-0.368;2022-07-04T03:42:07;6.03;;;1.42;;
49460;SDS011;35355;49.198;-0.368;2022-07-04T03:44:33;5.70;;;1.48;;
49460;SDS011;35355;49.198;-0.368;2022-07-04T03:46:58;5.68;;;2.08;;
49460;SDS011;35355;49.198;-0.368;2022-07-04T03:49:24;7.47;;;1.67;;
49460;SDS011;35355;49.198;-0.368;2022-07-04T03:51:49;7.82;;;1.38;;
49460;SDS011;35355;49.198;-0.368;2022-07-04T03:54:15;9.40;;;1.73;;
49460;SDS011;35355;49.198;-0.368;2022-07-04T03:56:40;9.82;;;1.30;;
49460;SDS011;35355;49.198;-0.368;2022-07-04T03:59:06;7.10;;;1.25;;
49460;SDS011;35355;49.198;-0.368;2022-07-04T04:01:31;6.95;;;1.42;;
49460;SDS011;35355;49.198;-0.368;2022-07-04T04:03:56;10.32;;;1.60;;
49460;SDS011;35355;49.198;-0.368;2022-07-04T04:09:05;5.47;;;1.33;;
49460;SDS011;35355;49.198;-0.368;2022-07-04T04:11:31;9.60;;;1.70;;
49460;SDS011;35355;49.198;-0.368;2022-07-04T04:13:57;7.63;;;1.73;;
49460;SDS011;35355;49.198;-0.368;2022-07-04T04:16:22;6.43;;;1.33;;
49460;SDS011;35355;49.198;-0.368;2022-07-04T04:18:48;6.18;;;2.03;;
49460;SDS011;35355;49.198;-0.368;2022-07-04T04:21:13;11.30;;;1.73;;
49460;SDS011;35355;49.198;-0.368;2022-07-04T04:23:38;8.00;;;1.45;;
49460;SDS011;35355;49.198;-0.368;2022-07-04T04:26:04;6.72;;;1.55;;
49460;SDS011;35355;49.198;-0.368;2022-07-04T04:28:29;4.28;;;1.73;;
49460;SDS011;35355;49.198;-0.368;2022-07-04T04:30:55;6.80;;;1.23;;
49460;SDS011;35355;49.198;-0.368;2022-07-04T04:33:20;5.70;;;1.98;;
49460;SDS011;35355;49.198;-0.368;2022-07-04T04:35:45;6.53;;;1.55;;
49460;SDS011;35355;49.198;-0.368;2022-07-04T04:38:11;8.70;;;2.40;;
49460;SDS011;35355;49.198;-0.368;2022-07-04T04:40:36;6.80;;;1.38;;
49460;SDS011;35355;49.198;-0.368;2022-07-04T04:43:01;6.45;;;1.55;;
49460;SDS011;35355;49.198;-0.368;2022-07-04T04:45:27;3.70;;;1.25;;
49460;SDS011;35355;49.198;-0.368;2022-07-04T04:47:52;4.45;;;1.70;;
49460;SDS011;35355;49.198;-0.368;2022-07-04T04:50:18;4.85;;;1.98;;
49460;SDS011;35355;49.198;-0.368;2022-07-04T04:52:44;7.95;;;1.80;;
49460;SDS011;35355;49.198;-0.368;2022-07-04T04:55:10;13.95;;;2.70;;
49460;SDS011;35355;49.198;-0.368;2022-07-04T04:57:35;6.80;;;1.85;;
49460;SDS011;35355;49.198;-0.368;2022-07-04T05:00:01;7.10;;;1.95;;
49460;SDS011;35355;49.198;-0.368;2022-07-04T05:02:29;10.30;;;2.17;;
49460;SDS011;35355;49.198;-0.368;2022-07-04T05:04:54;6.07;;;1.98;;
49460;SDS011;35355;49.198;-0.368;2022-07-04T05:07:20;4.90;;;2.28;;
49460;SDS011;35355;49.198;-0.368;2022-07-04T05:09:45;17.10;;;2.33;;
49460;SDS011;35355;49.198;-0.368;2022-07-04T05:12:10;8.95;;;2.42;;
49460;SDS011;35355;49.198;-0.368;2022-07-04T05:14:36;9.90;;;2.58;;
49460;SDS011;35355;49.198;-0.368;2022-07-04T05:17:01;8.68;;;1.55;;
49460;SDS011;35355;49.198;-0.368;2022-07-04T05:19:27;7.78;;;1.92;;
49460;SDS011;35355;49.198;-0.368;2022-07-04T05:21:53;8.45;;;1.85;;
49460;SDS011;35355;49.198;-0.368;2022-07-04T05:24:18;7.70;;;1.55;;
49460;SDS011;35355;49.198;-0.368;2022-07-04T05:26:43;13.05;;;1.67;;
49460;SDS011;35355;49.198;-0.368;2022-07-04T05:29:09;6.22;;;1.50;;
49460;SDS011;35355;49.198;-0.368;2022-07-04T05:31:34;7.90;;;1.80;;
49460;SDS011;35355;49.198;-0.368;2022-07-04T05:33:59;3.17;;;1.48;;
49460;SDS011;35355;49.198;-0.368;2022-07-04T05:36:25;5.85;;;1.17;;
49460;SDS011;35355;49.198;-0.368;2022-07-04T05:38:51;4.72;;;1.55;;
49460;SDS011;35355;49.198;-0.368;2022-07-04T05:41:17;12.30;;;2.13;;
49460;SDS011;35355;49.198;-0.368;2022-07-04T05:43:42;9.00;;;2.15;;
49460;SDS011;35355;49.198;-0.368;2022-07-04T05:46:08;5.55;;;1.48;;
49460;SDS011;35355;49.198;-0.368;2022-07-04T05:48:33;7.57;;;1.50;;
49460;SDS011;35355;49.198;-0.368;2022-07-04T05:53:28;11.90;;;1.50;;
49460;SDS011;35355;49.198;-0.368;2022-07-04T05:55:54;10.73;;;1.70;;
49460;SDS011;35355;49.198;-0.368;2022-07-04T05:58:20;6.78;;;1.80;;
49460;SDS011;35355;49.198;-0.368;2022-07-04T06:00:45;6.82;;;1.67;;
49460;SDS011;35355;49.198;-0.368;2022-07-04T06:03:11;9.35;;;1.17;;
49460;SDS011;35355;49.198;-0.368;2022-07-04T06:05:37;5.97;;;1.60;;
49460;SDS011;35355;49.198;-0.368;2022-07-04T06:08:03;7.35;;;1.60;;
49460;SDS011;35355;49.198;-0.368;2022-07-04T06:10:32;5.55;;;1.10;;
49460;SDS011;35355;49.198;-0.368;2022-07-04T06:12:59;10.77;;;2.05;;
49460;SDS011;35355;49.198;-0.368;2022-07-04T06:15:25;4.05;;;1.55;;
49460;SDS011;35355;49.198;-0.368;2022-07-04T06:17:51;2.33;;;1.10;;
49460;SDS011;35355;49.198;-0.368;2022-07-04T06:20:18;11.13;;;1.30;;
49460;SDS011;35355;49.198;-0.368;2022-07-04T06:22:44;5.32;;;1.40;;
49460;SDS011;35355;49.198;-0.368;2022-07-04T06:25:13;6.55;;;1.45;;
49460;SDS011;35355;49.198;-0.368;2022-07-04T06:27:44;15.88;;;1.50;;
49460;SDS011;35355;49.198;-0.368;2022-07-04T06:30:12;7.95;;;1.45;;
49460;SDS011;35355;49.198;-0.368;2022-07-04T06:32:49;3.95;;;1.13;;
49460;SDS011;35355;49.198;-0.368;2022-07-04T06:35:23;7.43;;;1.00;;
49460;SDS011;35355;49.198;-0.368;2022-07-04T06:38:08;11.13;;;1.30;;
49460;SDS011;35355;49.198;-0.368;2022-07-04T06:40:36;11.63;;;1.67;;
49460;SDS011;35355;49.198;-0.368;2022-07-04T06:43:03;7.20;;;1.13;;
49460;SDS011;35355;49.198;-0.368;2022-07-04T06:45:29;3.97;;;0.90;;
49460;SDS011;35355;49.198;-0.368;2022-07-04T06:47:55;4.95;;;0.88;;
49460;SDS011;35355;49.198;-0.368;2022-07-04T06:50:22;4.70;;;1.02;;
49460;SDS011;35355;49.198;-0.368;2022-07-04T06:52:48;8.30;;;1.20;;
49460;SDS011;35355;49.198;-0.368;2022-07-04T06:55:13;4.40;;;0.80;;
49460;SDS011;35355;49.198;-0.368;2022-07-04T06:57:39;9.93;;;0.98;;
49460;SDS011;35355;49.198;-0.368;2022-07-04T07:00:06;5.45;;;1.00;;
49460;SDS011;35355;49.198;-0.368;2022-07-04T07:02:36;4.93;;;1.33;;
49460;SDS011;35355;49.198;-0.368;2022-07-04T07:05:04;4.18;;;0.60;;
49460;SDS011;35355;49.198;-0.368;2022-07-04T07:07:30;9.77;;;1.50;;
49460;SDS011;35355;49.198;-0.368;2022-07-04T07:09:56;6.63;;;2.13;;
49460;SDS011;35355;49.198;-0.368;2022-07-04T07:12:22;4.97;;;1.10;;
49460;SDS011;35355;49.198;-0.368;2022-07-04T07:14:49;4.65;;;0.70;;
49460;SDS011;35355;49.198;-0.368;2022-07-04T07:17:15;6.03;;;0.73;;
49460;SDS011;35355;49.198;-0.368;2022-07-04T07:19:44;7.90;;;1.08;;
49460;SDS011;35355;49.198;-0.368;2022-07-04T07:22:11;5.00;;;0.93;;
49460;SDS011;35355;49.198;-0.368;2022-07-04T07:24:38;3.33;;;1.10;;
49460;SDS011;35355;49.198;-0.368;2022-07-04T07:27:09;2.40;;;0.75;;
49460;SDS011;35355;49.198;-0.368;2022-07-04T07:29:35;7.68;;;1.00;;
49460;SDS011;35355;49.198;-0.368;2022-07-04T07:32:01;3.53;;;0.77;;
49460;SDS011;35355;49.198;-0.368;2022-07-04T07:34:28;2.38;;;0.40;;
49460;SDS011;35355;49.198;-0.368;2022-07-04T07:36:53;2.63;;;0.60;;
49460;SDS011;35355;49.198;-0.368;2022-07-04T07:39:19;5.30;;;0.73;;
49460;SDS011;35355;49.198;-0.368;2022-07-04T07:41:45;5.82;;;0.98;;
49460;SDS011;35355;49.198;-0.368;2022-07-04T07:44:11;6.00;;;0.65;;
49460;SDS011;35355;49.198;-0.368;2022-07-04T07:46:37;7.25;;;0.88;;
49460;SDS011;35355;49.198;-0.368;2022-07-04T07:49:03;5.20;;;0.43;;
49460;SDS011;35355;49.198;-0.368;2022-07-04T07:51:28;3.08;;;0.50;;
49460;SDS011;35355;49.198;-0.368;2022-07-04T07:53:54;3.53;;;0.65;;
49460;SDS011;35355;49.198;-0.368;2022-07-04T07:56:20;3.17;;;0.55;;
49460;SDS011;35355;49.198;-0.368;2022-07-04T07:58:46;4.22;;;0.50;;
49460;SDS011;35355;49.198;-0.368;2022-07-04T08:01:11;3.53;;;0.38;;
49460;SDS011;35355;49.198;-0.368;2022-07-04T08:03:37;7.22;;;0.60;;
49460;SDS011;35355;49.198;-0.368;2022-07-04T08:06:24;3.42;;;0.82;;
49460;SDS011;35355;49.198;-0.368;2022-07-04T08:08:51;5.03;;;0.50;;
49460;SDS011;35355;49.198;-0.368;2022-07-04T08:11:16;3.30;;;0.45;;
49460;SDS011;35355;49.198;-0.368;2022-07-04T08:13:42;4.75;;;1.48;;
49460;SDS011;35355;49.198;-0.368;2022-07-04T08:16:10;3.90;;;0.68;;
49460;SDS011;35355;49.198;-0.368;2022-07-04T08:18:36;4.22;;;0.73;;
49460;SDS011;35355;49.198;-0.368;2022-07-04T08:21:02;3.00;;;0.43;;
49460;SDS011;35355;49.198;-0.368;2022-07-04T08:23:29;2.92;;;0.77;;
49460;SDS011;35355;49.198;-0.368;2022-07-04T08:25:56;4.47;;;0.40;;
49460;SDS011;35355;49.198;-0.368;2022-07-04T08:28:22;7.68;;;0.65;;
49460;SDS011;35355;49.198;-0.368;2022-07-04T08:30:47;1.92;;;0.45;;
49460;SDS011;35355;49.198;-0.368;2022-07-04T08:33:13;4.70;;;0.43;;
49460;SDS011;35355;49.198;-0.368;2022-07-04T08:35:39;1.55;;;0.30;;
49460;SDS011;35355;49.198;-0.368;2022-07-04T08:38:04;5.25;;;0.60;;
49460;SDS011;35355;49.198;-0.368;2022-07-04T08:40:30;6.50;;;0.60;;
49460;SDS011;35355;49.198;-0.368;2022-07-04T08:42:56;2.45;;;0.52;;
49460;SDS011;35355;49.198;-0.368;2022-07-04T08:45:25;2.45;;;0.43;;
49460;SDS011;35355;49.198;-0.368;2022-07-04T08:48:03;4.85;;;0.30;;
49460;SDS011;35355;49.198;-0.368;2022-07-04T08:50:37;6.47;;;0.50;;
49460;SDS011;35355;49.198;-0.368;2022-07-04T08:53:15;4.88;;;0.52;;
49460;SDS011;35355;49.198;-0.368;2022-07-04T08:55:43;16.80;;;0.98;;
49460;SDS011;35355;49.198;-0.368;2022-07-04T08:58:29;2.65;;;0.20;;
49460;SDS011;35355;49.198;-0.368;2022-07-04T09:01:01;2.40;;;0.30;;
49460;SDS011;35355;49.198;-0.368;2022-07-04T09:03:40;3.53;;;0.40;;
49460;SDS011;35355;49.198;-0.368;2022-07-04T09:06:08;4.05;;;0.40;;
49460;SDS011;35355;49.198;-0.368;2022-07-04T09:08:35;1.95;;;0.60;;
49460;SDS011;35355;49.198;-0.368;2022-07-04T09:11:02;3.42;;;0.57;;
49460;SDS011;35355;49.198;-0.368;2022-07-04T09:13:28;2.70;;;0.40;;
49460;SDS011;35355;49.198;-0.368;2022-07-04T09:15:54;1.58;;;0.43;;
49460;SDS011;35355;49.198;-0.368;2022-07-04T09:20:55;4.38;;;0.57;;
49460;SDS011;35355;49.198;-0.368;2022-07-04T09:23:26;3.95;;;0.50;;
49460;SDS011;35355;49.198;-0.368;2022-07-04T09:28:40;1.83;;;0.35;;
49460;SDS011;35355;49.198;-0.368;2022-07-04T09:31:16;3.03;;;0.30;;
49460;SDS011;35355;49.198;-0.368;2022-07-04T09:33:53;1.60;;;0.30;;
49460;SDS011;35355;49.198;-0.368;2022-07-04T09:36:24;5.43;;;0.73;;
49460;SDS011;35355;49.198;-0.368;2022-07-04T09:39:04;4.25;;;0.43;;
49460;SDS011;35355;49.198;-0.368;2022-07-04T09:41:30;1.50;;;0.40;;
49460;SDS011;35355;49.198;-0.368;2022-07-04T09:46:32;2.88;;;0.30;;
49460;SDS011;35355;49.198;-0.368;2022-07-04T09:48:58;1.50;;;0.20;;
49460;SDS011;35355;49.198;-0.368;2022-07-04T09:51:41;0.70;;;0.20;;
49460;SDS011;35355;49.198;-0.368;2022-07-04T09:54:18;2.30;;;0.20;;
49460;SDS011;35355;49.198;-0.368;2022-07-04T09:56:55;9.05;;;0.47;;
49460;SDS011;35355;49.198;-0.368;2022-07-04T09:59:22;1.23;;;0.30;;
49460;SDS011;35355;49.198;-0.368;2022-07-04T10:01:49;1.20;;;0.43;;
49460;SDS011;35355;49.198;-0.368;2022-07-04T10:04:15;1.85;;;0.52;;
49460;SDS011;35355;49.198;-0.368;2022-07-04T10:06:43;1.77;;;0.25;;
49460;SDS011;35355;49.198;-0.368;2022-07-04T10:09:11;6.22;;;0.60;;
49460;SDS011;35355;49.198;-0.368;2022-07-04T10:11:40;5.63;;;0.20;;
49460;SDS011;35355;49.198;-0.368;2022-07-04T10:14:07;0.98;;;0.20;;
49460;SDS011;35355;49.198;-0.368;2022-07-04T10:16:35;1.45;;;0.30;;
49460;SDS011;35355;49.198;-0.368;2022-07-04T10:19:02;2.03;;;0.20;;
49460;SDS011;35355;49.198;-0.368;2022-07-04T10:21:29;2.88;;;0.30;;
49460;SDS011;35355;49.198;-0.368;2022-07-04T10:23:55;2.22;;;0.40;;
49460;SDS011;35355;49.198;-0.368;2022-07-04T10:26:21;1.17;;;0.30;;
49460;SDS011;35355;49.198;-0.368;2022-07-04T10:28:50;1.38;;;0.20;;
49460;SDS011;35355;49.198;-0.368;2022-07-04T10:31:18;2.85;;;0.47;;
49460;SDS011;35355;49.198;-0.368;2022-07-04T10:33:46;4.43;;;0.43;;
49460;SDS011;35355;49.198;-0.368;2022-07-04T10:38:54;1.70;;;0.28;;
49460;SDS011;35355;49.198;-0.368;2022-07-04T10:41:25;5.90;;;0.52;;
49460;SDS011;35355;49.198;-0.368;2022-07-04T10:43:53;2.90;;;0.38;;
49460;SDS011;35355;49.198;-0.368;2022-07-04T10:48:58;3.55;;;0.35;;
49460;SDS011;35355;49.198;-0.368;2022-07-04T10:54:11;5.35;;;0.68;;
49460;SDS011;35355;49.198;-0.368;2022-07-04T10:56:48;3.00;;;0.25;;
49460;SDS011;35355;49.198;-0.368;2022-07-04T10:59:43;2.58;;;0.60;;
49460;SDS011;35355;49.198;-0.368;2022-07-04T11:05:11;6.25;;;0.40;;
49460;SDS011;35355;49.198;-0.368;2022-07-04T11:18:00;3.20;;;0.40;;
49460;SDS011;35355;49.198;-0.368;2022-07-04T11:20:34;6.32;;;0.75;;
49460;SDS011;35355;49.198;-0.368;2022-07-04T11:23:04;3.90;;;0.73;;
49460;SDS011;35355;49.198;-0.368;2022-07-04T11:25:31;1.45;;;0.30;;
49460;SDS011;35355;49.198;-0.368;2022-07-04T11:27:57;3.33;;;0.35;;
49460;SDS011;35355;49.198;-0.368;2022-07-04T11:30:23;3.50;;;0.30;;
49460;SDS011;35355;49.198;-0.368;2022-07-04T11:32:50;0.30;;;0.10;;
49460;SDS011;35355;49.198;-0.368;2022-07-04T11:35:19;2.30;;;0.30;;
49460;SDS011;35355;49.198;-0.368;2022-07-04T11:37:46;1.55;;;0.30;;
49460;SDS011;35355;49.198;-0.368;2022-07-04T11:40:21;4.38;;;0.35;;
49460;SDS011;35355;49.198;-0.368;2022-07-04T11:43:06;1.23;;;0.20;;
49460;SDS011;35355;49.198;-0.368;2022-07-04T11:45:51;4.40;;;0.70;;
49460;SDS011;35355;49.198;-0.368;2022-07-04T11:48:24;5.10;;;0.20;;
49460;SDS011;35355;49.198;-0.368;2022-07-04T11:50:52;5.28;;;0.40;;
49460;SDS011;35355;49.198;-0.368;2022-07-04T11:53:19;3.05;;;0.40;;
49460;SDS011;35355;49.198;-0.368;2022-07-04T11:55:55;5.68;;;0.50;;
49460;SDS011;35355;49.198;-0.368;2022-07-04T11:58:22;7.05;;;0.30;;
49460;SDS011;35355;49.198;-0.368;2022-07-04T12:00:49;1.45;;;0.38;;
49460;SDS011;35355;49.198;-0.368;2022-07-04T12:03:14;0.73;;;0.20;;
49460;SDS011;35355;49.198;-0.368;2022-07-04T12:05:40;2.08;;;0.52;;
49460;SDS011;35355;49.198;-0.368;2022-07-04T12:08:08;3.08;;;0.20;;
49460;SDS011;35355;49.198;-0.368;2022-07-04T12:10:35;3.70;;;0.20;;
49460;SDS011;35355;49.198;-0.368;2022-07-04T12:15:36;2.83;;;0.32;;
49460;SDS011;35355;49.198;-0.368;2022-07-04T12:18:02;2.72;;;0.77;;
49460;SDS011;35355;49.198;-0.368;2022-07-04T12:20:30;1.20;;;0.30;;
49460;SDS011;35355;49.198;-0.368;2022-07-04T12:22:57;0.77;;;0.20;;
49460;SDS011;35355;49.198;-0.368;2022-07-04T12:25:29;3.28;;;0.25;;
49460;SDS011;35355;49.198;-0.368;2022-07-04T12:28:01;4.35;;;0.40;;
49460;SDS011;35355;49.198;-0.368;2022-07-04T12:30:35;3.05;;;0.32;;
49460;SDS011;35355;49.198;-0.368;2022-07-04T12:33:03;0.85;;;0.20;;
49460;SDS011;35355;49.198;-0.368;2022-07-04T12:35:43;3.53;;;0.73;;
49460;SDS011;35355;49.198;-0.368;2022-07-04T12:43:18;3.47;;;0.30;;
49460;SDS011;35355;49.198;-0.368;2022-07-04T12:48:18;2.67;;;0.52;;
49460;SDS011;35355;49.198;-0.368;2022-07-04T12:50:47;2.42;;;0.30;;
49460;SDS011;35355;49.198;-0.368;2022-07-04T12:53:13;1.35;;;0.30;;
49460;SDS011;35355;49.198;-0.368;2022-07-04T12:55:40;2.55;;;0.10;;
49460;SDS011;35355;49.198;-0.368;2022-07-04T12:58:10;2.67;;;0.30;;
49460;SDS011;35355;49.198;-0.368;2022-07-04T13:00:38;2.70;;;0.52;;
49460;SDS011;35355;49.198;-0.368;2022-07-04T13:03:06;8.00;;;0.40;;
49460;SDS011;35355;49.198;-0.368;2022-07-04T13:05:36;3.63;;;0.43;;
49460;SDS011;35355;49.198;-0.368;2022-07-04T13:08:03;3.20;;;0.50;;
49460;SDS011;35355;49.198;-0.368;2022-07-04T13:10:29;6.25;;;0.88;;
49460;SDS011;35355;49.198;-0.368;2022-07-04T13:12:57;1.60;;;0.40;;
49460;SDS011;35355;49.198;-0.368;2022-07-04T13:15:23;5.90;;;0.68;;
49460;SDS011;35355;49.198;-0.368;2022-07-04T13:17:50;8.30;;;0.55;;
49460;SDS011;35355;49.198;-0.368;2022-07-04T13:20:15;2.85;;;0.25;;
49460;SDS011;35355;49.198;-0.368;2022-07-04T13:22:42;4.03;;;0.50;;
49460;SDS011;35355;49.198;-0.368;2022-07-04T13:25:07;1.65;;;0.30;;
49460;SDS011;35355;49.198;-0.368;2022-07-04T13:27:34;3.70;;;0.32;;
49460;SDS011;35355;49.198;-0.368;2022-07-04T13:30:03;1.63;;;0.30;;
49460;SDS011;35355;49.198;-0.368;2022-07-04T13:32:29;3.20;;;0.20;;
49460;SDS011;35355;49.198;-0.368;2022-07-04T13:34:55;7.78;;;0.70;;
49460;SDS011;35355;49.198;-0.368;2022-07-04T13:37:21;3.35;;;0.50;;
49460;SDS011;35355;49.198;-0.368;2022-07-04T13:39:48;4.95;;;0.40;;
49460;SDS011;35355;49.198;-0.368;2022-07-04T13:42:13;1.48;;;0.30;;
49460;SDS011;35355;49.198;-0.368;2022-07-04T13:44:59;1.13;;;0.50;;
49460;SDS011;35355;49.198;-0.368;2022-07-04T13:47:25;3.80;;;0.45;;
49460;SDS011;35355;49.198;-0.368;2022-07-04T13:49:51;1.90;;;0.30;;
49460;SDS011;35355;49.198;-0.368;2022-07-04T14:07:21;5.32;;;0.40;;
49460;SDS011;35355;49.198;-0.368;2022-07-04T14:09:47;2.92;;;0.35;;
49460;SDS011;35355;49.198;-0.368;2022-07-04T14:12:13;3.30;;;0.60;;
49460;SDS011;35355;49.198;-0.368;2022-07-04T14:14:39;3.90;;;0.40;;
49460;SDS011;35355;49.198;-0.368;2022-07-04T14:17:04;3.78;;;0.38;;
49460;SDS011;35355;49.198;-0.368;2022-07-04T14:19:30;3.88;;;0.50;;
49460;SDS011;35355;49.198;-0.368;2022-07-04T14:21:55;1.77;;;0.22;;
49460;SDS011;35355;49.198;-0.368;2022-07-04T14:24:21;4.43;;;0.40;;
49460;SDS011;35355;49.198;-0.368;2022-07-04T14:26:46;2.33;;;0.30;;
49460;SDS011;35355;49.198;-0.368;2022-07-04T14:29:11;3.53;;;0.47;;
49460;SDS011;35355;49.198;-0.368;2022-07-04T14:31:37;1.77;;;0.30;;
49460;SDS011;35355;49.198;-0.368;2022-07-04T14:34:02;1.55;;;0.40;;
49460;SDS011;35355;49.198;-0.368;2022-07-04T14:36:29;3.72;;;0.60;;
49460;SDS011;35355;49.198;-0.368;2022-07-04T14:38:55;2.50;;;0.20;;
49460;SDS011;35355;49.198;-0.368;2022-07-04T14:41:20;1.08;;;0.30;;
49460;SDS011;35355;49.198;-0.368;2022-07-04T14:43:46;1.35;;;0.20;;
49460;SDS011;35355;49.198;-0.368;2022-07-04T14:46:11;3.22;;;0.28;;
49460;SDS011;35355;49.198;-0.368;2022-07-04T14:48:37;1.25;;;0.38;;
49460;SDS011;35355;49.198;-0.368;2022-07-04T14:51:03;5.68;;;0.47;;
49460;SDS011;35355;49.198;-0.368;2022-07-04T14:53:29;2.65;;;0.40;;
49460;SDS011;35355;49.198;-0.368;2022-07-04T14:55:54;6.50;;;0.45;;
49460;SDS011;35355;49.198;-0.368;2022-07-04T14:58:20;4.82;;;0.93;;
49460;SDS011;35355;49.198;-0.368;2022-07-04T15:00:45;5.00;;;1.83;;
49460;SDS011;35355;49.198;-0.368;2022-07-04T15:03:11;2.53;;;0.22;;
49460;SDS011;35355;49.198;-0.368;2022-07-04T15:05:36;4.28;;;0.30;;
49460;SDS011;35355;49.198;-0.368;2022-07-04T15:08:01;4.93;;;0.70;;
49460;SDS011;35355;49.198;-0.368;2022-07-04T15:10:27;1.60;;;0.20;;
49460;SDS011;35355;49.198;-0.368;2022-07-04T15:12:53;6.68;;;0.30;;
49460;SDS011;35355;49.198;-0.368;2022-07-04T15:15:18;5.75;;;0.82;;
49460;SDS011;35355;49.198;-0.368;2022-07-04T15:17:45;9.57;;;0.52;;
49460;SDS011;35355;49.198;-0.368;2022-07-04T15:20:11;1.63;;;0.40;;
49460;SDS011;35355;49.198;-0.368;2022-07-04T15:22:55;5.30;;;0.30;;
49460;SDS011;35355;49.198;-0.368;2022-07-04T15:25:39;4.13;;;0.50;;
49460;SDS011;35355;49.198;-0.368;2022-07-04T15:28:04;3.53;;;0.30;;
49460;SDS011;35355;49.198;-0.368;2022-07-04T15:30:29;8.18;;;0.50;;
49460;SDS011;35355;49.198;-0.368;2022-07-04T15:32:55;2.47;;;0.47;;
49460;SDS011;35355;49.198;-0.368;2022-07-04T15:35:21;4.03;;;0.40;;